Time;durP1;ratioP1;P1;durP2;ratioP2;P2;SDS_P1;SDS_P2;PMS_P1;PMS_P2;Temp;Humidity;BMP_temperature;BMP_pressure;BME280_temperature;BME280_humidity;BME280_pressure;Samples;Min_cycle;Max_cycle;Signal;HPM_P1;HPM_P2
2022/04/08 00:01:41;;;;;;;6.13;1.80;;;4.30;99.90;;;;;;5073938;28;20043;-79
2022/04/08 00:04:07;;;;;;;2.95;1.42;;;4.20;99.90;;;;;;5090929;28;20020;-77
2022/04/08 00:06:33;;;;;;;5.95;1.30;;;4.00;99.90;;;;;;5091078;28;20024;-79
2022/04/08 00:08:58;;;;;;;1.80;1.08;;;4.00;99.90;;;;;;5091058;28;20020;-78
2022/04/08 00:11:25;;;;;;;10.32;1.77;;;3.90;99.90;;;;;;5076512;28;20036;-79
2022/04/08 00:13:53;;;;;;;2.90;1.40;;;3.90;99.90;;;;;;5089465;28;20028;-79
2022/04/08 00:16:19;;;;;;;8.35;1.67;;;3.80;99.90;;;;;;5090710;28;20070;-79
2022/04/08 00:18:45;;;;;;;6.63;1.73;;;3.80;99.90;;;;;;5090724;28;20032;-79
2022/04/08 00:21:11;;;;;;;5.93;1.70;;;3.80;99.90;;;;;;5090611;28;20020;-79
2022/04/08 00:23:37;;;;;;;5.60;1.25;;;3.70;99.90;;;;;;5093391;28;20076;-80
2022/04/08 00:26:03;;;;;;;5.78;1.75;;;3.70;99.90;;;;;;5082123;28;20496;-79
2022/04/08 00:28:29;;;;;;;6.78;1.20;;;3.80;99.90;;;;;;5074426;28;20170;-79
2022/04/08 00:30:54;;;;;;;2.63;1.20;;;3.80;99.90;;;;;;5073738;28;20100;-80
2022/04/08 00:33:20;;;;;;;2.58;1.50;;;3.80;99.90;;;;;;5088302;28;20104;-79
2022/04/08 00:35:46;;;;;;;3.75;1.40;;;3.80;99.90;;;;;;5092148;28;20470;-79
2022/04/08 00:38:11;;;;;;;4.25;1.20;;;3.80;99.90;;;;;;5094351;28;20024;-77
2022/04/08 00:40:37;;;;;;;8.15;1.80;;;3.80;99.90;;;;;;5087523;28;20541;-80
2022/04/08 00:43:14;;;;;;;2.05;1.23;;;3.70;99.90;;;;;;5088413;28;20048;-78
2022/04/08 00:45:40;;;;;;;5.35;1.42;;;3.70;99.90;;;;;;5094678;28;20028;-78
2022/04/08 00:48:07;;;;;;;10.35;1.50;;;3.70;99.90;;;;;;5094479;28;20024;-79
2022/04/08 00:50:44;;;;;;;4.95;1.50;;;3.80;99.90;;;;;;5093019;28;20024;-78
2022/04/08 00:53:10;;;;;;;8.63;1.70;;;4.00;99.90;;;;;;5092884;28;20024;-79
2022/04/08 00:55:37;;;;;;;4.68;1.30;;;4.10;99.90;;;;;;5089258;28;20035;-78
2022/04/08 00:58:04;;;;;;;3.67;1.38;;;4.20;99.90;;;;;;5074001;28;20064;-79
2022/04/08 01:00:35;;;;;;;5.63;1.85;;;4.20;99.90;;;;;;5073772;28;20028;-79
2022/04/08 01:03:02;;;;;;;9.63;1.73;;;4.20;99.90;;;;;;5083012;28;20032;-78
2022/04/08 01:05:28;;;;;;;8.38;2.05;;;4.30;99.90;;;;;;5090831;28;20024;-79
2022/04/08 01:07:54;;;;;;;8.25;1.65;;;4.40;99.90;;;;;;5092909;28;20035;-78
2022/04/08 01:10:21;;;;;;;7.82;1.92;;;4.50;99.90;;;;;;5091744;28;20024;-79
2022/04/08 01:12:49;;;;;;;4.38;1.40;;;4.60;99.90;;;;;;5084913;28;20024;-79
2022/04/08 01:15:18;;;;;;;4.45;1.30;;;4.70;99.90;;;;;;5093908;28;20495;-78
2022/04/08 01:17:45;;;;;;;5.35;1.48;;;4.60;99.90;;;;;;5093705;28;20043;-78
2022/04/08 01:20:11;;;;;;;5.88;1.42;;;4.60;99.90;;;;;;5094125;28;20032;-78
2022/04/08 01:22:36;;;;;;;5.03;1.75;;;4.60;99.90;;;;;;5093483;28;20012;-78
2022/04/08 01:25:06;;;;;;;8.57;1.73;;;4.60;99.90;;;;;;5093441;28;20039;-79
2022/04/08 01:27:32;;;;;;;4.20;1.60;;;4.60;99.90;;;;;;5073932;28;20025;-79
2022/04/08 01:29:58;;;;;;;4.65;2.00;;;4.50;99.90;;;;;;5073039;28;20035;-79
2022/04/08 01:32:24;;;;;;;5.35;1.33;;;4.40;99.90;;;;;;5077961;28;20052;-77
2022/04/08 01:34:52;;;;;;;3.65;1.40;;;4.30;99.90;;;;;;5088978;28;20058;-78
2022/04/08 01:37:21;;;;;;;7.00;1.83;;;4.30;99.90;;;;;;5091192;28;20031;-79
2022/04/08 01:39:47;;;;;;;3.20;1.33;;;4.30;99.90;;;;;;5092835;28;20118;-79
2022/04/08 01:42:13;;;;;;;3.58;1.55;;;4.30;99.90;;;;;;5084250;28;20103;-78
2022/04/08 01:44:39;;;;;;;4.97;1.27;;;4.30;99.90;;;;;;5093292;28;20043;-77
2022/04/08 01:47:05;;;;;;;8.27;1.77;;;4.30;99.90;;;;;;5090304;28;20373;-79
2022/04/08 01:49:32;;;;;;;5.03;1.75;;;4.30;99.90;;;;;;5090233;28;20099;-79
2022/04/08 01:51:58;;;;;;;4.63;1.40;;;4.20;99.90;;;;;;5092118;28;20017;-77
2022/04/08 01:54:23;;;;;;;5.15;1.75;;;4.20;99.90;;;;;;5093214;28;20031;-78
2022/04/08 01:56:49;;;;;;;5.93;1.40;;;4.10;99.90;;;;;;5091571;28;20380;-78
2022/04/08 01:59:15;;;;;;;8.52;1.60;;;4.10;99.90;;;;;;5091737;28;20039;-78
2022/04/08 02:01:41;;;;;;;3.65;1.20;;;4.10;99.90;;;;;;5093228;28;20031;-79
2022/04/08 02:04:07;;;;;;;5.80;1.67;;;4.10;99.90;;;;;;5091805;28;20063;-77
2022/04/08 02:06:36;;;;;;;6.43;1.92;;;4.10;99.90;;;;;;5092970;28;20024;-77
2022/04/08 02:09:02;;;;;;;5.97;1.35;;;4.20;99.90;;;;;;5092874;28;20039;-79
2022/04/08 02:11:28;;;;;;;6.88;1.80;;;4.20;99.90;;;;;;5086088;28;20111;-79
2022/04/08 02:13:54;;;;;;;3.65;1.40;;;4.30;99.90;;;;;;5091041;28;20099;-75
2022/04/08 02:16:19;;;;;;;9.35;1.30;;;4.20;99.90;;;;;;5092590;28;20052;-77
2022/04/08 02:18:45;;;;;;;4.65;1.35;;;4.20;99.90;;;;;;5093667;28;20036;-77
2022/04/08 02:21:11;;;;;;;7.30;1.65;;;4.30;99.90;;;;;;5093604;28;20460;-76
2022/04/08 02:23:37;;;;;;;6.88;1.50;;;4.30;99.90;;;;;;5093582;28;20036;-78
2022/04/08 02:26:05;;;;;;;6.30;1.83;;;4.40;99.90;;;;;;5090247;28;20028;-77
2022/04/08 02:28:33;;;;;;;3.67;1.33;;;4.30;99.90;;;;;;5092737;28;20089;-77
2022/04/08 02:30:58;;;;;;;2.60;1.30;;;4.30;99.90;;;;;;5092399;28;20459;-77
2022/04/08 02:33:24;;;;;;;1.80;1.15;;;4.20;99.90;;;;;;5092160;28;20063;-78
2022/04/08 02:35:50;;;;;;;5.22;1.30;;;4.10;99.90;;;;;;5090973;28;20040;-78
2022/04/08 02:38:16;;;;;;;6.93;1.50;;;4.00;99.90;;;;;;5092170;28;20047;-78
2022/04/08 02:40:41;;;;;;;8.48;1.63;;;3.90;99.90;;;;;;5092370;28;20028;-78
2022/04/08 02:43:07;;;;;;;5.10;1.35;;;3.90;99.90;;;;;;5086504;28;20028;-78
2022/04/08 02:45:33;;;;;;;5.50;1.52;;;3.80;99.90;;;;;;5091581;28;20081;-78
2022/04/08 02:47:58;;;;;;;5.07;1.40;;;3.80;99.90;;;;;;5090514;28;20495;-78
2022/04/08 02:50:24;;;;;;;7.38;1.60;;;3.80;99.90;;;;;;5091985;28;20104;-78
2022/04/08 02:52:50;;;;;;;4.25;1.17;;;3.70;99.90;;;;;;5091408;28;20107;-78
2022/04/08 02:55:15;;;;;;;5.38;1.20;;;3.70;99.90;;;;;;5091589;28;20024;-78
2022/04/08 02:57:50;;;;;;;3.05;1.45;;;3.60;99.90;;;;;;5077246;28;20036;-78
2022/04/08 03:00:18;;;;;;;4.85;1.08;;;3.50;99.90;;;;;;5071310;28;20033;-78
2022/04/08 03:02:45;;;;;;;4.93;1.50;;;3.50;99.90;;;;;;5080597;28;20504;-78
2022/04/08 03:05:11;;;;;;;4.93;1.42;;;3.50;99.90;;;;;;5090232;28;20661;-77
2022/04/08 03:07:37;;;;;;;2.83;1.30;;;3.60;99.90;;;;;;5091666;28;20104;-78
2022/04/08 03:10:04;;;;;;;4.80;1.40;;;3.60;99.90;;;;;;5091329;28;20069;-78
2022/04/08 03:12:31;;;;;;;4.55;1.30;;;3.60;99.90;;;;;;5087091;28;20047;-78
2022/04/08 03:14:58;;;;;;;5.10;1.35;;;3.60;99.90;;;;;;5091014;28;20032;-78
2022/04/08 03:17:23;;;;;;;4.53;1.40;;;3.70;99.90;;;;;;5091223;28;20507;-78
2022/04/08 03:19:49;;;;;;;2.55;1.30;;;3.70;99.90;;;;;;5089035;28;20101;-77
2022/04/08 03:22:19;;;;;;;4.75;1.40;;;3.60;99.90;;;;;;5088032;28;20381;-78
2022/04/08 03:24:45;;;;;;;6.50;1.83;;;3.60;99.90;;;;;;5087675;28;20020;-78
2022/04/08 03:27:11;;;;;;;7.20;1.60;;;3.50;99.90;;;;;;5079777;28;20024;-78
2022/04/08 03:29:37;;;;;;;5.88;1.45;;;3.60;99.90;;;;;;5068025;28;20025;-79
2022/04/08 03:32:03;;;;;;;5.88;1.45;;;3.60;99.90;;;;;;5070741;28;20032;-77
2022/04/08 03:34:28;;;;;;;2.55;1.45;;;3.60;99.90;;;;;;5091339;28;20099;-77
2022/04/08 03:36:54;;;;;;;6.28;1.58;;;3.70;99.90;;;;;;5091317;28;20039;-77
2022/04/08 03:39:20;;;;;;;5.13;1.45;;;3.70;99.90;;;;;;5090611;28;20028;-78
2022/04/08 03:41:45;;;;;;;6.53;1.40;;;3.70;99.90;;;;;;5088661;28;20032;-78
2022/04/08 03:44:11;;;;;;;7.65;1.67;;;3.70;99.90;;;;;;5091080;28;20507;-78
2022/04/08 03:46:37;;;;;;;6.45;1.33;;;3.80;99.90;;;;;;5091036;28;20087;-76
2022/04/08 03:49:04;;;;;;;4.32;1.27;;;3.80;99.90;;;;;;5090919;28;20052;-79
2022/04/08 03:51:30;;;;;;;3.60;1.02;;;3.80;99.90;;;;;;5091184;28;20024;-78
2022/04/08 03:53:56;;;;;;;7.72;1.40;;;3.70;99.90;;;;;;5090702;28;20081;-79
2022/04/08 03:56:21;;;;;;;8.32;1.83;;;3.80;99.90;;;;;;5091529;28;20267;-78
2022/04/08 03:58:47;;;;;;;6.63;1.30;;;3.80;99.90;;;;;;5075575;28;20106;-78
2022/04/08 04:01:13;;;;;;;6.72;1.40;;;3.80;99.90;;;;;;5075270;28;20423;-78
2022/04/08 04:03:38;;;;;;;4.97;1.60;;;3.80;99.90;;;;;;5091457;28;20633;-80
2022/04/08 04:06:04;;;;;;;4.07;1.20;;;3.80;99.90;;;;;;5094957;28;20534;-79
2022/04/08 04:08:30;;;;;;;7.32;1.60;;;3.80;99.90;;;;;;5094943;28;20048;-78
2022/04/08 04:10:55;;;;;;;7.22;1.85;;;3.80;99.90;;;;;;5094921;28;20073;-78
2022/04/08 04:13:21;;;;;;;8.05;1.70;;;3.80;99.90;;;;;;5093678;28;20032;-78
2022/04/08 04:15:47;;;;;;;3.85;1.40;;;3.80;99.90;;;;;;5075428;28;20074;-78
2022/04/08 04:18:12;;;;;;;3.70;1.33;;;3.80;99.90;;;;;;5082437;28;20033;-78
2022/04/08 04:20:38;;;;;;;2.22;1.20;;;3.80;99.90;;;;;;5071489;28;20033;-77
2022/04/08 04:23:04;;;;;;;4.32;1.40;;;3.80;99.90;;;;;;5071320;28;20027;-78
2022/04/08 04:25:30;;;;;;;4.60;1.75;;;3.80;99.90;;;;;;5069526;28;20020;-79
2022/04/08 04:27:56;;;;;;;4.47;1.42;;;3.80;99.90;;;;;;5078183;28;20030;-79
2022/04/08 04:30:23;;;;;;;4.60;1.50;;;3.70;99.90;;;;;;5091267;28;20400;-79
2022/04/08 04:32:49;;;;;;;9.98;1.85;;;3.80;99.90;;;;;;5085215;28;20507;-77
2022/04/08 04:35:15;;;;;;;6.38;1.67;;;3.80;99.90;;;;;;5070822;28;20039;-79
2022/04/08 04:37:41;;;;;;;4.88;1.13;;;3.80;99.90;;;;;;5075522;28;20024;-78
2022/04/08 04:40:08;;;;;;;4.70;1.48;;;3.80;99.90;;;;;;5094619;28;20043;-78
2022/04/08 04:42:34;;;;;;;6.40;1.85;;;3.90;99.90;;;;;;5094620;28;20381;-79
2022/04/08 04:45:00;;;;;;;7.18;1.75;;;3.90;99.90;;;;;;5094646;28;20020;-77
2022/04/08 04:47:26;;;;;;;4.55;1.23;;;3.90;99.90;;;;;;5093004;28;20036;-78
2022/04/08 04:49:51;;;;;;;5.00;1.50;;;3.90;99.90;;;;;;5074300;28;20024;-78
2022/04/08 04:52:17;;;;;;;8.20;2.00;;;3.90;99.90;;;;;;5074166;28;20451;-79
2022/04/08 04:54:43;;;;;;;4.07;1.50;;;3.90;99.90;;;;;;5074017;28;20027;-79
2022/04/08 04:57:09;;;;;;;7.00;1.55;;;3.90;99.90;;;;;;5074965;28;20653;-77
2022/04/08 04:59:34;;;;;;;7.63;1.58;;;3.90;99.90;;;;;;5094158;28;20054;-79
2022/04/08 05:02:00;;;;;;;7.38;1.70;;;3.90;99.90;;;;;;5090723;28;20373;-79
2022/04/08 05:04:26;;;;;;;8.77;1.80;;;3.90;99.90;;;;;;5090354;28;20040;-80
2022/04/08 05:06:52;;;;;;;6.47;1.70;;;3.90;99.90;;;;;;5090882;28;20032;-77
2022/04/08 05:09:17;;;;;;;4.78;1.30;;;3.90;99.90;;;;;;5072673;28;20545;-78
2022/04/08 05:11:43;;;;;;;8.38;1.95;;;3.90;99.90;;;;;;5068791;28;20013;-79
2022/04/08 05:14:09;;;;;;;6.72;1.77;;;3.90;99.90;;;;;;5070364;28;20495;-78
2022/04/08 05:16:34;;;;;;;8.13;2.03;;;3.90;99.90;;;;;;5071271;28;20045;-80
2022/04/08 05:19:00;;;;;;;7.88;1.17;;;3.90;99.90;;;;;;5076300;28;20032;-78
2022/04/08 05:21:29;;;;;;;11.23;2.53;;;4.00;99.90;;;;;;5071974;28;20025;-79
2022/04/08 05:23:55;;;;;;;4.63;1.48;;;4.10;99.90;;;;;;5070433;28;20040;-79
2022/04/08 05:26:21;;;;;;;9.70;1.98;;;4.10;99.90;;;;;;5070066;28;20032;-79
2022/04/08 05:28:47;;;;;;;8.68;1.95;;;4.10;99.90;;;;;;5083052;28;20031;-78
2022/04/08 05:31:13;;;;;;;8.05;2.47;;;4.10;99.90;;;;;;5088879;28;20407;-78
2022/04/08 05:33:39;;;;;;;9.40;2.50;;;4.20;99.90;;;;;;5081697;28;20038;-79
2022/04/08 05:36:06;;;;;;;6.70;1.60;;;4.20;99.90;;;;;;5072221;28;20095;-78
2022/04/08 05:38:32;;;;;;;9.00;1.80;;;4.20;99.90;;;;;;5084479;28;20024;-79
2022/04/08 05:40:58;;;;;;;7.65;2.05;;;4.20;99.90;;;;;;5092738;28;20369;-78
2022/04/08 05:43:23;;;;;;;13.38;2.78;;;4.20;99.90;;;;;;5088867;28;20050;-77
2022/04/08 05:45:49;;;;;;;11.85;2.00;;;4.20;99.90;;;;;;5091020;28;20793;-78
2022/04/08 05:48:15;;;;;;;7.18;1.90;;;4.20;99.90;;;;;;5087268;28;20021;-79
2022/04/08 05:50:40;;;;;;;11.07;3.05;;;4.20;99.90;;;;;;5069896;28;20381;-78
2022/04/08 05:53:06;;;;;;;9.85;2.60;;;4.30;99.90;;;;;;5069339;28;20029;-78
2022/04/08 05:55:32;;;;;;;8.75;1.80;;;4.30;99.90;;;;;;5084628;28;20123;-78
2022/04/08 05:57:57;;;;;;;5.90;1.77;;;4.40;99.90;;;;;;5075367;28;20054;-79
2022/04/08 06:00:23;;;;;;;6.00;1.60;;;4.50;99.90;;;;;;5089537;28;20028;-79
2022/04/08 06:02:50;;;;;;;10.77;2.17;;;4.60;99.90;;;;;;5089464;28;20548;-78
2022/04/08 06:05:20;;;;;;;8.95;2.00;;;4.60;99.90;;;;;;5069402;28;20036;-79
2022/04/08 06:07:51;;;;;;;8.55;1.60;;;4.70;99.90;;;;;;5075136;28;20036;-77
2022/04/08 06:10:18;;;;;;;5.85;2.00;;;4.70;99.90;;;;;;5093091;28;20511;-78
2022/04/08 06:12:55;;;;;;;5.05;1.90;;;4.80;99.90;;;;;;5093037;28;20028;-78
2022/04/08 06:15:20;;;;;;;6.65;1.48;;;4.80;99.90;;;;;;5091172;28;20094;-78
2022/04/08 06:17:47;;;;;;;7.97;1.50;;;4.80;99.90;;;;;;5089428;28;20061;-79
2022/04/08 06:20:16;;;;;;;5.97;1.80;;;4.90;99.90;;;;;;5070030;28;20032;-78
2022/04/08 06:22:42;;;;;;;6.30;1.40;;;4.90;99.90;;;;;;5068876;28;20028;-79
2022/04/08 06:25:10;;;;;;;5.03;1.08;;;4.90;99.90;;;;;;5068641;28;20024;-79
2022/04/08 06:27:36;;;;;;;3.65;1.38;;;4.90;99.90;;;;;;5071599;28;20433;-78
2022/04/08 06:30:03;;;;;;;7.43;1.30;;;4.90;99.90;;;;;;5089165;28;20368;-78
2022/04/08 06:32:29;;;;;;;6.68;1.48;;;5.00;99.90;;;;;;5089009;28;20027;-79
2022/04/08 06:34:54;;;;;;;5.55;2.17;;;5.00;99.90;;;;;;5073455;28;20154;-80
2022/04/08 06:37:20;;;;;;;10.48;1.40;;;5.00;99.90;;;;;;5069085;28;20501;-79
2022/04/08 06:39:47;;;;;;;6.55;1.95;;;5.00;99.90;;;;;;5088697;28;20036;-78
2022/04/08 06:42:14;;;;;;;10.25;2.70;;;5.00;99.90;;;;;;5089247;28;20103;-77
2022/04/08 06:44:39;;;;;;;6.60;1.75;;;5.00;99.90;;;;;;5088783;28;20024;-78
2022/04/08 06:47:05;;;;;;;6.97;1.80;;;5.00;99.90;;;;;;5088916;28;20433;-78
2022/04/08 06:49:31;;;;;;;5.72;1.50;;;5.10;99.90;;;;;;5083226;28;20024;-78
2022/04/08 06:51:58;;;;;;;13.15;1.60;;;5.10;99.90;;;;;;5091224;28;20032;-78
2022/04/08 06:54:25;;;;;;;6.60;1.58;;;5.10;99.90;;;;;;5091809;28;20020;-78
2022/04/08 06:56:51;;;;;;;7.28;1.80;;;5.20;99.90;;;;;;5091333;28;20024;-76
2022/04/08 06:59:17;;;;;;;3.40;1.55;;;5.30;99.90;;;;;;5089910;28;20047;-74
2022/04/08 07:01:43;;;;;;;10.48;2.15;;;5.30;99.90;;;;;;5089511;28;20024;-81
2022/04/08 07:04:08;;;;;;;7.90;1.75;;;5.40;99.90;;;;;;5082116;28;20031;-80
2022/04/08 07:06:34;;;;;;;4.35;1.67;;;5.50;99.90;;;;;;5068739;28;20429;-79
2022/04/08 07:09:00;;;;;;;4.47;1.88;;;5.50;99.90;;;;;;5085395;28;20471;-80
2022/04/08 07:11:25;;;;;;;7.72;2.60;;;5.60;99.90;;;;;;5091588;28;20028;-78
2022/04/08 07:13:51;;;;;;;9.88;2.03;;;5.70;99.90;;;;;;5090382;28;20464;-81
2022/04/08 07:16:17;;;;;;;6.03;2.00;;;5.70;99.90;;;;;;5092241;28;20067;-81
2022/04/08 07:18:42;;;;;;;5.13;1.50;;;5.80;99.90;;;;;;5089963;28;20031;-81
2022/04/08 07:21:09;;;;;;;9.60;1.60;;;5.80;99.90;;;;;;5091397;28;20456;-83
2022/04/08 07:23:36;;;;;;;6.65;1.70;;;5.80;99.90;;;;;;5091655;28;20048;-83
2022/04/08 07:26:03;;;;;;;8.50;1.35;;;5.80;99.90;;;;;;5090330;28;20576;-82
2022/04/08 07:28:29;;;;;;;10.00;2.03;;;5.90;99.90;;;;;;5091465;28;20048;-80
2022/04/08 07:30:55;;;;;;;7.10;1.27;;;6.00;99.90;;;;;;5091678;28;20062;-83
2022/04/08 07:33:20;;;;;;;8.30;1.58;;;6.00;99.90;;;;;;5090658;28;20016;-81
2022/04/08 07:35:46;;;;;;;4.70;1.35;;;6.00;99.90;;;;;;5086239;28;20033;-84
2022/04/08 07:38:12;;;;;;;10.05;1.77;;;6.10;99.90;;;;;;5078648;28;20568;-78
2022/04/08 07:40:37;;;;;;;4.78;2.05;;;6.10;99.90;;;;;;5091545;28;20426;-81
2022/04/08 07:43:03;;;;;;;6.18;1.70;;;6.10;99.90;;;;;;5091331;28;20032;-81
2022/04/08 07:45:30;;;;;;;10.60;2.53;;;6.10;99.90;;;;;;5091770;28;20032;-78
2022/04/08 07:47:58;;;;;;;6.75;2.00;;;6.00;99.90;;;;;;5091506;28;20032;-79
2022/04/08 07:50:25;;;;;;;6.75;1.60;;;6.00;99.90;;;;;;5076962;28;20020;-81
2022/04/08 07:52:51;;;;;;;10.57;2.03;;;6.00;99.90;;;;;;5071125;28;20035;-80
2022/04/08 07:55:20;;;;;;;12.60;2.47;;;6.10;99.90;;;;;;5070700;28;20021;-80
2022/04/08 07:57:50;;;;;;;7.43;2.35;;;6.20;99.90;;;;;;5073902;28;20027;-80
2022/04/08 08:00:28;;;;;;;12.95;3.20;;;6.30;99.90;;;;;;5090839;28;20032;-81
2022/04/08 08:02:55;;;;;;;9.23;2.60;;;6.50;99.90;;;;;;5091071;28;20021;-82
2022/04/08 08:05:21;;;;;;;9.70;2.63;;;6.70;99.90;;;;;;5078615;28;20102;-84
2022/04/08 08:07:49;;;;;;;9.43;2.08;;;6.80;99.90;;;;;;5073851;28;20414;-82
2022/04/08 08:10:21;;;;;;;14.20;3.78;;;6.90;99.90;;;;;;5090737;28;20028;-82
2022/04/08 08:12:47;;;;;;;19.27;3.70;;;7.00;99.90;;;;;;5091200;28;20027;-81
2022/04/08 08:15:15;;;;;;;12.05;4.40;;;7.20;99.90;;;;;;5090959;28;20052;-82
2022/04/08 08:17:41;;;;;;;5.57;1.67;;;7.30;99.90;;;;;;5090647;28;20019;-83
2022/04/08 08:20:09;;;;;;;5.43;1.33;;;7.40;99.90;;;;;;5075921;28;20039;-80
2022/04/08 08:22:35;;;;;;;6.90;1.42;;;7.40;99.90;;;;;;5083504;28;20480;-79
2022/04/08 08:25:03;;;;;;;6.32;1.70;;;7.30;99.90;;;;;;5090380;28;20031;-80
2022/04/08 08:27:35;;;;;;;2.97;0.65;;;7.40;99.90;;;;;;5090308;28;20460;-84
2022/04/08 08:30:01;;;;;;;4.55;0.70;;;7.40;99.90;;;;;;5076301;28;20044;-80
2022/04/08 08:32:27;;;;;;;2.40;0.63;;;7.40;99.90;;;;;;5089794;28;20036;-79
2022/04/08 08:34:53;;;;;;;1.65;0.70;;;7.50;99.90;;;;;;5084160;28;20021;-82
2022/04/08 08:37:19;;;;;;;4.35;0.60;;;7.50;99.90;;;;;;5084257;28;20032;-84
2022/04/08 08:39:44;;;;;;;4.20;0.65;;;7.60;99.90;;;;;;5090809;28;20643;-81
2022/04/08 08:42:11;;;;;;;1.42;0.60;;;7.70;99.90;;;;;;5089348;28;20024;-78
2022/04/08 08:44:39;;;;;;;4.03;0.70;;;7.90;99.90;;;;;;5087665;28;20134;-79
2022/04/08 08:47:12;;;;;;;2.55;0.82;;;8.00;99.90;;;;;;5094312;28;20028;-81
2022/04/08 08:49:44;;;;;;;2.65;0.70;;;8.10;99.90;;;;;;5091098;28;20020;-77
2022/04/08 08:52:10;;;;;;;2.13;0.50;;;8.20;99.90;;;;;;5089039;28;20070;-79
2022/04/08 08:54:36;;;;;;;3.22;0.55;;;8.30;99.30;;;;;;5094570;28;20481;-79
2022/04/08 08:57:02;;;;;;;0.98;0.73;;;8.30;99.90;;;;;;5094313;28;20122;-78
2022/04/08 08:59:29;;;;;;;1.95;0.52;;;8.30;99.90;;;;;;5079407;28;20566;-77
2022/04/08 09:02:02;;;;;;;3.08;0.90;;;8.40;99.90;;;;;;5075660;28;20043;-76
2022/04/08 09:04:28;;;;;;;1.38;0.70;;;8.50;99.90;;;;;;5093774;28;20028;-78
2022/04/08 09:06:54;;;;;;;4.22;0.77;;;8.80;99.90;;;;;;5092506;28;20020;-79
2022/04/08 09:09:33;;;;;;;2.97;0.82;;;8.90;99.90;;;;;;5087413;28;20020;-73
2022/04/08 09:12:12;;;;;;;3.83;0.70;;;9.00;99.90;;;;;;5073929;28;20031;-79
2022/04/08 09:14:38;;;;;;;2.45;1.00;;;9.00;99.90;;;;;;5070570;28;20044;-77
2022/04/08 09:17:04;;;;;;;2.47;1.13;;;8.90;99.90;;;;;;5071267;28;20495;-79
2022/04/08 09:19:34;;;;;;;5.25;1.20;;;8.90;99.90;;;;;;5091743;28;20028;-78
2022/04/08 09:22:00;;;;;;;3.13;0.90;;;9.00;99.90;;;;;;5092982;28;20079;-77
2022/04/08 09:24:29;;;;;;;2.97;1.30;;;9.20;99.90;;;;;;5093654;28;20024;-78
2022/04/08 09:26:55;;;;;;;2.30;1.02;;;9.40;99.90;;;;;;5092535;28;20035;-78
2022/04/08 09:29:24;;;;;;;4.85;0.90;;;9.50;99.90;;;;;;5080877;28;20557;-77
2022/04/08 09:31:51;;;;;;;1.83;0.82;;;9.60;99.90;;;;;;5073570;28;20032;-78
2022/04/08 09:34:19;;;;;;;5.78;1.08;;;9.70;99.90;;;;;;5073139;28;20065;-78
2022/04/08 09:36:45;;;;;;;4.70;1.15;;;9.60;99.40;;;;;;5088545;28;20028;-78
2022/04/08 09:39:12;;;;;;;5.47;1.80;;;9.60;99.90;;;;;;5091270;28;20576;-78
2022/04/08 09:41:42;;;;;;;4.80;1.60;;;9.70;99.90;;;;;;5073195;28;20111;-77
2022/04/08 09:44:09;;;;;;;6.32;1.60;;;9.70;99.90;;;;;;5071624;28;20490;-77
2022/04/08 09:46:36;;;;;;;5.70;1.67;;;9.80;99.90;;;;;;5085966;28;20074;-77
2022/04/08 09:49:06;;;;;;;5.55;2.20;;;9.60;99.90;;;;;;5092871;28;20469;-78
2022/04/08 09:51:40;;;;;;;3.40;1.30;;;9.50;99.90;;;;;;5083677;28;20396;-80
2022/04/08 09:54:20;;;;;;;4.38;1.30;;;9.60;99.90;;;;;;5090772;28;20028;-77
2022/04/08 09:56:49;;;;;;;2.92;0.80;;;9.70;99.90;;;;;;5091988;28;20081;-78
2022/04/08 09:59:15;;;;;;;3.55;0.63;;;9.70;99.20;;;;;;5091260;28;20067;-78
2022/04/08 10:01:45;;;;;;;3.53;1.02;;;9.70;97.00;;;;;;5072816;28;20016;-79
2022/04/08 10:04:11;;;;;;;3.60;0.90;;;9.70;99.90;;;;;;5072899;28;20021;-78
2022/04/08 10:06:38;;;;;;;4.60;1.00;;;9.70;99.90;;;;;;5071669;28;20086;-77
2022/04/08 10:09:08;;;;;;;1.67;0.50;;;9.50;99.90;;;;;;5084941;28;20107;-76
2022/04/08 10:11:45;;;;;;;3.58;0.90;;;9.40;99.90;;;;;;5087851;28;20028;-79
2022/04/08 10:14:34;;;;;;;6.53;1.17;;;9.30;99.90;;;;;;5089648;28;20027;-78
2022/04/08 10:17:00;;;;;;;4.95;1.10;;;9.10;99.90;;;;;;5081673;28;20517;-78
2022/04/08 10:19:29;;;;;;;7.55;1.42;;;8.90;99.90;;;;;;5088819;28;20047;-76
2022/04/08 10:21:55;;;;;;;1.08;0.73;;;8.90;99.90;;;;;;5072833;28;20049;-79
2022/04/08 10:24:29;;;;;;;5.65;1.05;;;9.00;99.90;;;;;;5068942;28;20101;-79
2022/04/08 10:26:58;;;;;;;6.95;1.17;;;9.10;99.90;;;;;;5083961;28;20028;-79
2022/04/08 10:29:24;;;;;;;3.55;0.95;;;9.20;99.90;;;;;;5088993;28;20421;-76
2022/04/08 10:32:16;;;;;;;4.15;1.13;;;9.10;99.90;;;;;;5087630;28;20540;-77
2022/04/08 10:34:42;;;;;;;2.35;0.80;;;9.30;99.90;;;;;;5086367;28;20067;-79
2022/04/08 10:37:17;;;;;;;6.38;1.00;;;9.40;99.90;;;;;;5071486;28;20024;-78
2022/04/08 10:40:04;;;;;;;4.55;1.13;;;9.50;99.90;;;;;;5083786;28;20055;-78
2022/04/08 10:42:33;;;;;;;7.80;1.23;;;9.20;99.90;;;;;;5083559;28;20029;-77
2022/04/08 10:45:10;;;;;;;12.23;2.25;;;9.30;99.90;;;;;;5074112;28;20039;-79
2022/04/08 10:47:47;;;;;;;3.08;0.95;;;9.20;99.90;;;;;;5087362;28;20115;-79
2022/04/08 10:50:27;;;;;;;3.05;0.90;;;9.30;99.90;;;;;;5088310;28;20035;-79
2022/04/08 10:53:11;;;;;;;3.20;1.10;;;9.30;99.90;;;;;;5088126;28;20475;-79
2022/04/08 10:56:04;;;;;;;2.50;0.85;;;9.00;99.90;;;;;;5088609;28;20019;-78
2022/04/08 10:58:32;;;;;;;6.32;1.45;;;9.10;99.90;;;;;;5081184;28;20084;-76
2022/04/08 11:00:58;;;;;;;4.18;0.90;;;9.10;99.90;;;;;;5068294;28;20032;-78
2022/04/08 11:03:27;;;;;;;2.03;0.90;;;9.00;99.90;;;;;;5068223;28;20119;-77
2022/04/08 11:05:54;;;;;;;8.88;1.10;;;9.20;99.90;;;;;;5069321;28;20094;-77
2022/04/08 11:08:23;;;;;;;17.13;3.25;;;9.30;99.90;;;;;;5088147;28;20107;-77
2022/04/08 11:10:58;;;;;;;67.97;8.27;;;9.20;99.90;;;;;;5088828;28;20020;-77
2022/04/08 11:13:24;;;;;;;6.38;2.42;;;9.50;99.90;;;;;;5087969;28;20028;-78
2022/04/08 11:15:50;;;;;;;4.55;1.00;;;9.70;99.90;;;;;;5087808;28;20040;-77
2022/04/08 11:18:17;;;;;;;4.40;1.00;;;9.80;99.90;;;;;;5088356;28;20119;-77
2022/04/08 11:20:51;;;;;;;4.15;1.15;;;9.90;99.90;;;;;;5087593;28;20039;-78
2022/04/08 11:23:32;;;;;;;3.88;1.05;;;10.10;99.90;;;;;;5091428;28;20426;-79
2022/04/08 11:25:58;;;;;;;5.63;1.27;;;10.30;99.90;;;;;;5089787;28;20543;-79
2022/04/08 11:28:24;;;;;;;4.07;1.20;;;10.50;99.90;;;;;;5091088;28;20665;-78
2022/04/08 11:30:58;;;;;;;5.57;1.27;;;10.30;98.50;;;;;;5089418;28;20032;-78
2022/04/08 11:33:25;;;;;;;4.82;1.17;;;10.20;99.60;;;;;;5086409;28;20100;-78
2022/04/08 11:35:57;;;;;;;7.68;1.30;;;10.10;99.90;;;;;;5085290;28;20028;-79
2022/04/08 11:38:23;;;;;;;3.20;1.00;;;10.10;99.90;;;;;;5076131;28;20086;-78
2022/04/08 11:40:49;;;;;;;4.38;1.00;;;10.30;99.70;;;;;;5091120;28;20058;-77
2022/04/08 11:43:17;;;;;;;3.47;0.93;;;10.40;98.40;;;;;;5073670;28;20369;-81
2022/04/08 11:45:48;;;;;;;3.50;1.02;;;10.50;99.90;;;;;;5069837;28;20032;-76
2022/04/08 11:48:16;;;;;;;5.10;1.58;;;10.40;98.50;;;;;;5087772;28;20024;-79
2022/04/08 11:50:43;;;;;;;3.63;0.88;;;10.50;98.20;;;;;;5080772;28;20067;-77
2022/04/08 11:53:15;;;;;;;13.57;1.58;;;10.60;97.50;;;;;;5067358;28;20476;-77
2022/04/08 11:55:54;;;;;;;7.47;1.10;;;10.50;98.20;;;;;;5071916;28;20017;-79
2022/04/08 11:58:20;;;;;;;6.35;1.50;;;10.20;99.40;;;;;;5072072;28;20104;-78
2022/04/08 12:00:50;;;;;;;9.15;1.27;;;10.20;98.00;;;;;;5087703;28;20101;-78
2022/04/08 12:03:26;;;;;;;1.77;0.88;;;10.10;99.30;;;;;;5087435;28;20016;-80
2022/04/08 12:05:52;;;;;;;4.18;1.40;;;10.30;98.10;;;;;;5085607;28;20110;-79
2022/04/08 12:08:19;;;;;;;4.10;1.27;;;10.30;97.90;;;;;;5077024;28;20035;-80
2022/04/08 12:10:50;;;;;;;2.22;1.10;;;10.30;96.80;;;;;;5088014;28;20087;-79
2022/04/08 12:13:18;;;;;;;4.78;1.13;;;10.50;99.60;;;;;;5074150;28;20028;-78
2022/04/08 12:15:46;;;;;;;5.07;0.98;;;10.90;96.30;;;;;;5087136;28;20613;-79
2022/04/08 12:18:12;;;;;;;5.53;0.95;;;11.10;96.50;;;;;;5087439;28;20024;-79
2022/04/08 12:20:40;;;;;;;4.63;1.20;;;11.30;95.50;;;;;;5079238;28;20370;-79
2022/04/08 12:23:08;;;;;;;2.58;1.00;;;11.30;95.00;;;;;;5071751;28;20071;-79
2022/04/08 12:25:36;;;;;;;4.75;1.70;;;11.30;94.10;;;;;;5070152;28;20162;-80
2022/04/08 12:28:02;;;;;;;1.23;0.80;;;11.50;98.30;;;;;;5072325;28;20052;-83
2022/04/08 12:30:34;;;;;;;3.67;1.00;;;11.80;94.10;;;;;;5087868;28;20615;-80
2022/04/08 12:32:59;;;;;;;5.72;0.95;;;11.90;91.10;;;;;;5089801;28;20035;-80
2022/04/08 12:35:26;;;;;;;5.97;1.08;;;12.00;91.50;;;;;;5091315;28;20031;-81
2022/04/08 12:37:52;;;;;;;3.75;1.00;;;12.50;95.20;;;;;;5085109;28;20046;-80
2022/04/08 12:40:18;;;;;;;4.10;1.00;;;12.90;92.40;;;;;;5091373;28;20500;-79
2022/04/08 12:42:43;;;;;;;6.60;1.85;;;13.60;86.40;;;;;;5091635;28;20016;-79
2022/04/08 12:45:10;;;;;;;3.40;0.90;;;13.70;81.20;;;;;;5077375;28;20062;-78
2022/04/08 12:47:36;;;;;;;5.30;1.27;;;13.80;72.00;;;;;;5090638;28;20425;-80
2022/04/08 12:50:03;;;;;;;6.18;1.00;;;13.80;75.00;;;;;;5090651;28;20032;-80
2022/04/08 12:52:28;;;;;;;4.18;1.23;;;13.70;72.60;;;;;;5081489;28;20035;-79
2022/04/08 12:54:54;;;;;;;6.63;1.58;;;13.30;75.70;;;;;;5089171;28;20032;-78
2022/04/08 12:57:20;;;;;;;4.53;1.17;;;12.90;77.80;;;;;;5091380;28;20036;-79